createdAt,value
2023-02-19T00:00:33.751Z,85.56640625
2023-02-19T00:01:33.823Z,85.5400390625
2023-02-19T00:02:33.864Z,85.7607421875
2023-02-19T00:03:34.130Z,85.833984375
2023-02-19T00:04:33.899Z,86.0322265625
2023-02-19T00:05:33.763Z,86.005859375
2023-02-19T00:06:36.173Z,85.939453125
2023-02-19T00:07:33.751Z,85.904296875
2023-02-19T00:08:34.101Z,86.060546875
2023-02-19T00:09:33.875Z,86.0966796875
2023-02-19T00:10:33.819Z,85.962890625
2023-02-19T00:11:33.874Z,86.119140625
2023-02-19T00:12:33.900Z,86.0966796875
2023-02-19T00:13:33.986Z,86.0859375
2023-02-19T00:14:33.831Z,86.08984375
2023-02-19T00:15:33.893Z,85.9794921875
2023-02-19T00:16:33.859Z,85.9130859375
2023-02-19T00:17:36.173Z,86.0576171875
2023-02-19T00:18:34.114Z,86.125
2023-02-19T00:19:33.832Z,86.1455078125
2023-02-19T00:20:33.886Z,86.3974609375
2023-02-19T00:21:33.736Z,86.3125
2023-02-19T00:22:33.844Z,86.3251953125
2023-02-19T00:23:34.099Z,86.6953125
2023-02-19T00:24:33.879Z,86.6455078125
2023-02-19T00:25:33.842Z,86.6103515625
2023-02-19T00:26:33.858Z,86.6875
2023-02-19T00:27:33.834Z,86.7119140625
2023-02-19T00:28:38.616Z,86.689453125
2023-02-19T00:29:33.746Z,86.701171875
2023-02-19T00:30:33.919Z,86.732421875
2023-02-19T00:31:33.935Z,86.8173828125
2023-02-19T00:32:33.753Z,86.8955078125
2023-02-19T00:33:33.875Z,87.06640625
2023-02-19T00:34:33.886Z,86.90625
2023-02-19T00:35:33.756Z,86.6728515625
2023-02-19T00:36:33.811Z,86.6728515625
2023-02-19T00:37:33.875Z,86.5517578125
2023-02-19T00:38:34.104Z,86.625
2023-02-19T00:39:36.171Z,86.767578125
2023-02-19T00:40:33.851Z,87.0595703125
2023-02-19T00:41:33.766Z,87.2724609375
2023-02-19T00:42:33.750Z,87.173828125
2023-02-19T00:43:34.244Z,87.146484375
2023-02-19T00:44:33.852Z,87.412109375
2023-02-19T00:45:33.878Z,87.17578125
2023-02-19T00:46:33.901Z,87.0830078125
2023-02-19T00:47:33.847Z,86.9345703125
2023-02-19T00:48:34.104Z,86.939453125
2023-02-19T00:49:33.833Z,86.91015625
2023-02-19T00:50:36.149Z,86.8115234375
2023-02-19T00:51:33.815Z,86.677734375
2023-02-19T00:52:33.855Z,86.80078125
2023-02-19T00:53:34.109Z,87.03515625
2023-02-19T00:54:33.877Z,87.1123046875
2023-02-19T00:55:33.783Z,87.1259765625
2023-02-19T00:56:33.851Z,86.984375
2023-02-19T00:57:33.881Z,87.1123046875
2023-02-19T00:58:34.118Z,87.1796875
2023-02-19T00:59:33.758Z,87.2021484375
2023-02-19T01:00:33.869Z,87.3818359375
2023-02-19T01:01:36.241Z,87.3818359375
2023-02-19T01:02:33.863Z,87.470703125
2023-02-19T01:03:34.098Z,87.595703125
2023-02-19T01:04:33.798Z,87.552734375
2023-02-19T01:05:33.813Z,87.513671875
2023-02-19T01:06:33.775Z,87.4482421875
2023-02-19T01:07:33.851Z,87.3857421875
2023-02-19T01:08:34.119Z,87.330078125
2023-02-19T01:09:33.799Z,87.177734375
2023-02-19T01:10:33.871Z,87.5341796875
2023-02-19T01:11:33.852Z,87.8203125
2023-02-19T01:12:38.674Z,87.7099609375
2023-02-19T01:13:34.091Z,87.544921875
2023-02-19T01:14:33.836Z,87.6865234375
2023-02-19T01:15:33.761Z,87.689453125
2023-02-19T01:16:33.758Z,87.623046875
2023-02-19T01:17:33.788Z,87.5693359375
2023-02-19T01:18:34.110Z,87.5390625
2023-02-19T01:19:33.849Z,87.4521484375
2023-02-19T01:20:33.783Z,87.4501953125
2023-02-19T01:21:33.781Z,87.4443359375
2023-02-19T01:22:33.786Z,87.203125
2023-02-19T01:23:38.580Z,87.166015625
2023-02-19T01:24:33.896Z,87.0322265625
2023-02-19T01:25:33.773Z,87.0654296875
2023-02-19T01:26:33.822Z,87.16015625
2023-02-19T01:27:34.122Z,87.126953125
2023-02-19T01:28:34.118Z,87.2626953125
2023-02-19T01:29:33.735Z,87.0732421875
2023-02-19T01:30:33.962Z,87.3037109375
2023-02-19T01:31:34.102Z,87.3271484375
2023-02-19T01:32:33.783Z,87.236328125
2023-02-19T01:33:34.102Z,87.248046875
2023-02-19T01:34:36.159Z,87.28125
2023-02-19T01:35:33.737Z,87.3662109375
2023-02-19T01:36:33.740Z,87.552734375
2023-02-19T01:37:33.733Z,87.626953125
2023-02-19T01:38:34.120Z,87.736328125
2023-02-19T01:39:33.877Z,87.9013671875
2023-02-19T01:40:33.763Z,87.9658203125
2023-02-19T01:41:33.877Z,87.9365234375
2023-02-19T01:42:34.093Z,87.9697265625
2023-02-19T01:43:34.097Z,87.9677734375
2023-02-19T01:44:33.765Z,87.998046875
2023-02-19T01:45:36.140Z,88.173828125
2023-02-19T01:46:33.968Z,88.2333984375
2023-02-19T01:47:33.778Z,87.984375
2023-02-19T01:48:34.100Z,87.876953125
2023-02-19T01:49:33.841Z,87.8896484375
2023-02-19T01:50:33.734Z,87.755859375
2023-02-19T01:51:33.834Z,87.953125
2023-02-19T01:52:33.875Z,88.0703125
2023-02-19T01:53:34.103Z,88.1318359375
2023-02-19T01:54:33.733Z,88.255859375
2023-02-19T01:55:33.838Z,88.1552734375
2023-02-19T01:56:36.231Z,88.17578125
2023-02-19T01:57:34.095Z,88.251953125
2023-02-19T01:58:34.251Z,88.3173828125
2023-02-19T01:59:33.931Z,88.4521484375
2023-02-19T02:00:33.904Z,88.3017578125
2023-02-19T02:01:33.849Z,88.392578125
2023-02-19T02:02:33.735Z,88.5732421875
2023-02-19T02:03:34.101Z,88.8212890625
2023-02-19T02:04:33.860Z,89.2939453125
2023-02-19T02:05:33.735Z,89.384765625
2023-02-19T02:06:33.830Z,89.322265625
2023-02-19T02:07:36.184Z,89.3515625
2023-02-19T02:08:34.096Z,89.572265625
2023-02-19T02:09:33.830Z,89.5634765625
2023-02-19T02:10:33.745Z,89.865234375
2023-02-19T02:11:33.755Z,89.9228515625
2023-02-19T02:12:34.137Z,90.0224609375
2023-02-19T02:13:34.103Z,90.087890625
2023-02-19T02:14:33.822Z,90.3828125
2023-02-19T02:15:33.787Z,90.44140625
2023-02-19T02:16:33.912Z,90.66015625
2023-02-19T02:17:33.823Z,90.8994140625
2023-02-19T02:18:38.626Z,90.8955078125
2023-02-19T02:19:33.875Z,91.2294921875
2023-02-19T02:20:33.876Z,91.02734375
2023-02-19T02:21:33.797Z,90.9677734375
2023-02-19T02:22:33.766Z,91.171875
2023-02-19T02:23:34.099Z,91.4453125
2023-02-19T02:24:33.881Z,91.2998046875
2023-02-19T02:25:33.878Z,90.982421875
2023-02-19T02:26:33.897Z,90.9697265625
2023-02-19T02:27:34.108Z,91.171875
2023-02-19T02:28:34.103Z,91.0478515625
2023-02-19T02:29:36.162Z,91.0029296875
2023-02-19T02:30:33.851Z,90.8603515625
2023-02-19T02:31:33.934Z,90.99609375
2023-02-19T02:32:33.827Z,90.91015625
2023-02-19T02:33:34.105Z,91.3759765625
2023-02-19T02:34:33.886Z,91.5869140625
2023-02-19T02:35:33.872Z,91.82421875
2023-02-19T02:36:33.866Z,91.7275390625
2023-02-19T02:37:33.860Z,91.8427734375
2023-02-19T02:38:34.112Z,91.53515625
2023-02-19T02:39:33.810Z,91.607421875
2023-02-19T02:40:36.162Z,91.82421875
2023-02-19T02:41:33.775Z,91.9033203125
2023-02-19T02:42:34.114Z,92.0263671875
2023-02-19T02:43:34.106Z,92.1650390625
2023-02-19T02:44:33.881Z,92.41796875
2023-02-19T02:45:33.915Z,92.7744140625
2023-02-19T02:46:33.858Z,93.0537109375
2023-02-19T02:47:33.810Z,93.5712890625
2023-02-19T02:48:34.104Z,94.0732421875
2023-02-19T02:49:33.810Z,94.0107421875
2023-02-19T02:50:33.872Z,93.958984375
2023-02-19T02:51:36.195Z,93.9033203125
2023-02-19T02:52:33.814Z,93.845703125
2023-02-19T02:53:34.107Z,93.677734375
2023-02-19T02:54:33.859Z,93.7255859375
2023-02-19T02:55:33.849Z,93.6962890625
2023-02-19T02:56:33.864Z,93.6162109375
2023-02-19T02:57:34.102Z,93.458984375
2023-02-19T02:58:33.892Z,93.419921875
2023-02-19T02:59:33.743Z,93.564453125
2023-02-19T03:00:33.746Z,93.5146484375
2023-02-19T03:01:33.844Z,93.3818359375
2023-02-19T03:02:36.175Z,93.3017578125
2023-02-19T03:03:34.120Z,93.390625
2023-02-19T03:04:33.821Z,93.2939453125
2023-02-19T03:05:33.875Z,93.171875
2023-02-19T03:06:33.842Z,93.0947265625
2023-02-19T03:07:33.757Z,93.0478515625
2023-02-19T03:08:34.102Z,93.103515625
2023-02-19T03:09:33.779Z,93.2421875
2023-02-19T03:10:33.840Z,92.9873046875
2023-02-19T03:11:33.807Z,93.1591796875
2023-02-19T03:12:34.121Z,93.2587890625
2023-02-19T03:13:38.577Z,92.96484375
2023-02-19T03:14:33.865Z,93.2509765625
2023-02-19T03:15:33.745Z,93.353515625
2023-02-19T03:16:33.906Z,93.490234375
2023-02-19T03:17:33.838Z,93.248046875
2023-02-19T03:18:34.104Z,93.107421875
2023-02-19T03:19:33.762Z,92.8115234375
2023-02-19T03:20:33.826Z,92.5947265625
2023-02-19T03:21:33.840Z,92.5498046875
2023-02-19T03:22:33.768Z,92.3740234375
2023-02-19T03:23:34.103Z,92.328125
2023-02-19T03:24:36.215Z,92.3505859375
2023-02-19T03:25:33.739Z,92.0478515625
2023-02-19T03:26:33.738Z,92.3203125
2023-02-19T03:27:34.126Z,92.28125
2023-02-19T03:28:34.097Z,92.009765625
2023-02-19T03:29:33.775Z,92.21484375
2023-02-19T03:30:33.879Z,92.1484375
2023-02-19T03:31:33.859Z,92.1484375
2023-02-19T03:32:33.876Z,92.2275390625
2023-02-19T03:33:34.091Z,92.2998046875
2023-02-19T03:34:33.855Z,92.3955078125
2023-02-19T03:35:36.217Z,92.5048828125
2023-02-19T03:36:33.806Z,92.6142578125
2023-02-19T03:37:33.853Z,92.6328125
2023-02-19T03:38:34.089Z,92.5888671875
2023-02-19T03:39:33.761Z,92.64453125
2023-02-19T03:40:33.813Z,92.6328125
2023-02-19T03:41:33.807Z,92.93359375
2023-02-19T03:42:33.834Z,92.8779296875
2023-02-19T03:43:34.691Z,93.125
2023-02-19T03:44:33.879Z,93.2900390625
2023-02-19T03:45:33.773Z,93.1845703125
2023-02-19T03:46:36.172Z,93.2919921875
2023-02-19T03:47:33.785Z,93.630859375
2023-02-19T03:48:34.102Z,93.65234375
2023-02-19T03:49:33.824Z,93.86328125
2023-02-19T03:50:33.885Z,93.9638671875
2023-02-19T03:51:33.886Z,93.552734375
2023-02-19T03:52:33.875Z,93.63671875
2023-02-19T03:53:34.100Z,93.734375
2023-02-19T03:54:33.781Z,93.8974609375
2023-02-19T03:55:33.744Z,93.951171875
2023-02-19T03:56:33.763Z,93.953125
2023-02-19T03:57:36.205Z,93.8974609375
2023-02-19T03:58:34.099Z,94.0283203125
2023-02-19T03:59:33.868Z,94.125
2023-02-19T04:00:33.847Z,94.1953125
2023-02-19T04:01:33.895Z,94.1865234375
2023-02-19T04:02:33.946Z,94.1328125
2023-02-19T04:03:34.104Z,93.9638671875
2023-02-19T04:04:33.908Z,94.1083984375
2023-02-19T04:05:33.746Z,93.708984375
2023-02-19T04:06:33.995Z,93.8203125
2023-02-19T04:07:33.861Z,93.9052734375
2023-02-19T04:08:38.678Z,94.099609375
2023-02-19T04:09:33.771Z,94.3955078125
2023-02-19T04:10:33.793Z,94.3642578125
2023-02-19T04:11:33.884Z,94.40625
2023-02-19T04:12:33.869Z,94.2421875
2023-02-19T04:13:34.129Z,94.052734375
2023-02-19T04:14:33.843Z,94.1748046875
2023-02-19T04:15:33.772Z,94.1083984375
2023-02-19T04:16:33.905Z,94.052734375
2023-02-19T04:17:33.890Z,93.8828125
2023-02-19T04:18:34.114Z,93.8388671875
2023-02-19T04:19:36.179Z,93.8544921875
2023-02-19T04:20:33.876Z,93.6162109375
2023-02-19T04:21:33.893Z,93.5810546875
2023-02-19T04:22:33.792Z,93.6513671875
2023-02-19T04:23:34.110Z,93.9912109375
2023-02-19T04:24:33.778Z,93.5595703125
2023-02-19T04:25:33.746Z,93.1748046875
2023-02-19T04:26:33.799Z,92.7470703125
2023-02-19T04:27:33.886Z,92.513671875
2023-02-19T04:28:33.861Z,92.1630859375
2023-02-19T04:29:33.845Z,92.37109375
2023-02-19T04:30:36.392Z,92.224609375
2023-02-19T04:31:33.970Z,91.892578125
2023-02-19T04:32:33.873Z,91.8466796875
2023-02-19T04:33:34.112Z,91.65234375
2023-02-19T04:34:33.787Z,91.61328125
2023-02-19T04:35:33.754Z,91.6220703125
2023-02-19T04:36:33.827Z,91.7626953125
2023-02-19T04:37:33.815Z,91.7578125
2023-02-19T04:38:34.094Z,91.5517578125
2023-02-19T04:39:33.844Z,91.357421875
2023-02-19T04:40:33.885Z,91.044921875
2023-02-19T04:41:36.183Z,90.697265625
2023-02-19T04:42:33.826Z,90.736328125
2023-02-19T04:45:11.697Z,90.9072265625
2023-02-19T04:46:11.796Z,90.8310546875
2023-02-19T04:47:11.635Z,90.7333984375
2023-02-19T04:48:11.968Z,90.7626953125
2023-02-19T04:49:11.730Z,90.787109375
2023-02-19T04:50:14.241Z,90.58984375
2023-02-19T04:51:12.017Z,90.6015625
2023-02-19T04:52:11.682Z,90.388671875
2023-02-19T04:53:11.972Z,89.9658203125
2023-02-19T04:54:11.689Z,90.009765625
2023-02-19T04:55:11.665Z,89.9189453125
2023-02-19T04:56:11.731Z,89.8525390625
2023-02-19T04:57:11.609Z,89.896484375
2023-02-19T04:58:11.976Z,89.6220703125
2023-02-19T04:59:11.608Z,89.578125
2023-02-19T05:00:11.716Z,89.423828125
2023-02-19T05:01:14.477Z,89.35546875
2023-02-19T05:02:11.695Z,89.3056640625
2023-02-19T05:03:11.959Z,89.2587890625
2023-02-19T05:04:11.733Z,89.1962890625
2023-02-19T05:05:11.742Z,88.9970703125
2023-02-19T05:06:11.692Z,88.8115234375
2023-02-19T05:07:11.715Z,88.58203125
2023-02-19T05:08:11.967Z,88.5576171875
2023-02-19T05:09:11.724Z,88.4794921875
2023-02-19T05:10:11.661Z,88.60546875
2023-02-19T05:11:12.071Z,88.7392578125
2023-02-19T05:12:14.053Z,88.685546875
2023-02-19T05:13:12.017Z,88.6279296875
2023-02-19T05:14:11.689Z,88.60546875
2023-02-19T05:15:11.717Z,88.658203125
2023-02-19T05:16:11.713Z,88.7353515625
2023-02-19T05:17:11.635Z,88.66015625
2023-02-19T05:18:11.966Z,88.5078125
2023-02-19T05:19:11.721Z,88.6298828125
2023-02-19T05:20:11.836Z,88.580078125
2023-02-19T05:21:11.988Z,88.5244140625
2023-02-19T05:22:11.628Z,88.4013671875
2023-02-19T05:23:16.380Z,88.248046875
2023-02-19T05:24:11.745Z,88.2900390625
2023-02-19T05:25:11.657Z,88.55078125
2023-02-19T05:26:11.635Z,88.869140625
2023-02-19T05:27:11.613Z,88.7041015625
2023-02-19T05:28:11.960Z,88.5927734375
2023-02-19T05:29:11.692Z,88.765625
2023-02-19T05:30:11.755Z,88.8505859375
2023-02-19T05:31:12.197Z,89.05859375
2023-02-19T05:32:11.836Z,89.09375
2023-02-19T05:33:11.954Z,89.0419921875
2023-02-19T05:34:14.072Z,88.8125
2023-02-19T05:35:11.672Z,88.876953125
2023-02-19T05:36:11.728Z,89.021484375
2023-02-19T05:37:11.694Z,89.2392578125
2023-02-19T05:38:11.956Z,89.359375
2023-02-19T05:39:11.679Z,89.24609375
2023-02-19T05:40:11.696Z,89.322265625
2023-02-19T05:41:12.105Z,89.36328125
2023-02-19T05:42:11.693Z,89.462890625
2023-02-19T05:43:11.961Z,89.3486328125
2023-02-19T05:44:11.734Z,89.2392578125
2023-02-19T05:45:14.004Z,89.138671875
2023-02-19T05:46:11.727Z,89.103515625
2023-02-19T05:47:11.588Z,89.2021484375
2023-02-19T05:48:12.140Z,89.13671875
2023-02-19T05:49:11.720Z,89.0390625
2023-02-19T05:50:12.709Z,88.7470703125
2023-02-19T05:51:12.068Z,88.7568359375
2023-02-19T05:52:11.644Z,88.5859375
2023-02-19T05:53:11.951Z,88.6435546875
2023-02-19T05:54:11.703Z,88.4267578125
2023-02-19T05:55:11.607Z,88.2490234375
2023-02-19T05:56:13.903Z,88.1298828125
2023-02-19T05:57:11.688Z,87.779296875
2023-02-19T05:58:11.954Z,87.59765625
2023-02-19T05:59:11.746Z,87.4140625
2023-02-19T06:00:11.700Z,87.2783203125
2023-02-19T06:01:11.908Z,87.3427734375
2023-02-19T06:02:11.726Z,87.37890625
2023-02-19T06:03:11.954Z,87.32421875
2023-02-19T06:04:11.850Z,87.1669921875
2023-02-19T06:05:11.676Z,87.51953125
2023-02-19T06:06:11.674Z,87.892578125
2023-02-19T06:07:14.047Z,88.3837890625
2023-02-19T06:08:11.948Z,88.6044921875
2023-02-19T06:09:11.713Z,88.96875
2023-02-19T06:10:11.717Z,89.134765625
2023-02-19T06:11:12.020Z,89.134765625
2023-02-19T06:12:11.719Z,89.1884765625
2023-02-19T06:13:11.708Z,88.7216796875
2023-02-19T06:14:11.712Z,88.6435546875
2023-02-19T06:15:11.625Z,88.4736328125
2023-02-19T06:16:11.783Z,88.55078125
2023-02-19T06:17:11.603Z,88.4619140625
2023-02-19T06:18:16.422Z,88.5732421875
2023-02-19T06:19:11.633Z,88.55078125
2023-02-19T06:20:12.705Z,88.376953125
2023-02-19T06:21:12.001Z,88.5498046875
2023-02-19T06:22:11.623Z,88.7236328125
2023-02-19T06:23:11.956Z,88.6513671875
2023-02-19T06:24:11.596Z,88.818359375
2023-02-19T06:25:11.616Z,89.078125
2023-02-19T06:26:11.802Z,88.958984375
2023-02-19T06:27:11.610Z,88.8759765625
2023-02-19T06:28:11.951Z,88.7607421875
2023-02-19T06:29:14.000Z,88.3896484375
2023-02-19T06:30:11.813Z,88.373046875
2023-02-19T06:31:12.133Z,88.294921875
2023-02-19T06:32:11.652Z,87.8525390625
2023-02-19T06:33:11.962Z,87.7236328125
2023-02-19T06:34:11.624Z,87.482421875
2023-02-19T06:35:11.714Z,87.3720703125
2023-02-19T06:36:11.704Z,87.44921875
2023-02-19T06:37:11.649Z,87.3935546875
2023-02-19T06:38:11.954Z,87.5029296875
2023-02-19T06:39:11.721Z,87.4921875
2023-02-19T06:40:13.984Z,87.42578125
2023-02-19T06:41:11.819Z,87.533203125
2023-02-19T06:42:11.595Z,87.5146484375
2023-02-19T06:43:11.976Z,87.48828125
2023-02-19T06:44:11.666Z,87.5166015625
2023-02-19T06:45:11.721Z,87.4775390625
2023-02-19T06:46:11.703Z,87.5888671875
2023-02-19T06:47:11.684Z,87.572265625
2023-02-19T06:48:11.962Z,87.193359375
2023-02-19T06:49:11.722Z,87.044921875
2023-02-19T06:50:11.604Z,86.7861328125
2023-02-19T06:51:13.951Z,86.6083984375
2023-02-19T06:52:11.705Z,86.4326171875
2023-02-19T06:53:11.961Z,86.296875
2023-02-19T06:54:11.676Z,86.451171875
2023-02-19T06:55:11.705Z,86.4287109375
2023-02-19T06:56:11.653Z,86.408203125
2023-02-19T06:57:11.616Z,86.28515625
2023-02-19T06:58:11.960Z,86.1982421875
2023-02-19T06:59:11.648Z,86.0771484375
2023-02-19T07:00:11.687Z,86.091796875
2023-02-19T07:01:12.153Z,85.83984375
2023-02-19T07:02:13.981Z,85.7265625
2023-02-19T07:03:11.954Z,85.7041015625
2023-02-19T07:04:11.764Z,85.5830078125
2023-02-19T07:05:11.690Z,85.5
2023-02-19T07:06:11.641Z,85.3662109375
2023-02-19T07:07:11.732Z,85.1015625
2023-02-19T07:08:11.966Z,84.994140625
2023-02-19T07:09:11.703Z,84.8994140625
2023-02-19T07:10:11.709Z,85.3720703125
2023-02-19T07:11:12.074Z,86.259765625
2023-02-19T07:12:11.677Z,87.083984375
2023-02-19T07:13:16.410Z,87.578125
2023-02-19T07:14:11.666Z,87.12890625
2023-02-19T07:15:11.717Z,86.5478515625
2023-02-19T07:16:11.908Z,86.4033203125
2023-02-19T07:17:11.627Z,86.794921875
2023-02-19T07:18:11.701Z,87.84375
2023-02-19T07:19:11.746Z,88.9970703125
2023-02-19T07:20:12.798Z,90.373046875
2023-02-19T07:21:12.050Z,92.009765625
2023-02-19T07:22:11.739Z,93.7802734375
2023-02-19T07:23:11.683Z,94.140625
2023-02-19T07:24:13.952Z,94.0400390625
2023-02-19T07:25:11.714Z,94.2421875
2023-02-19T07:26:11.708Z,94.2177734375
2023-02-19T07:27:11.696Z,93.8623046875
2023-02-19T07:28:11.958Z,95.306640625
2023-02-19T07:29:11.665Z,96.3291015625
2023-02-19T07:30:11.728Z,97.900390625
2023-02-19T07:31:12.126Z,97.677734375
2023-02-19T07:32:11.646Z,97.388671875
2023-02-19T07:33:11.946Z,97.1943359375
2023-02-19T07:34:11.706Z,97.9033203125
2023-02-19T07:35:13.955Z,98.3701171875
2023-02-19T07:36:11.587Z,98.318359375
2023-02-19T07:37:11.592Z,97.7119140625
2023-02-19T07:38:11.959Z,97.451171875
2023-02-19T07:39:11.723Z,97.2060546875
2023-02-19T07:40:11.631Z,96.46875
2023-02-19T07:41:11.968Z,96.4794921875
2023-02-19T07:42:11.745Z,95.7646484375
2023-02-19T07:43:11.746Z,95.6875
2023-02-19T07:44:11.701Z,94.76953125
2023-02-19T07:45:11.723Z,94.6416015625
2023-02-19T07:46:14.062Z,94.7841796875
2023-02-19T07:47:11.671Z,94.06640625
2023-02-19T07:48:11.710Z,93.9677734375
2023-02-19T07:49:11.627Z,94.0126953125
2023-02-19T07:50:14.045Z,94.1962890625
2023-02-19T07:51:12.037Z,95.1357421875
2023-02-19T07:52:11.743Z,95.1484375
2023-02-19T07:53:11.649Z,95.650390625
2023-02-19T07:54:11.657Z,95.5390625
2023-02-19T07:55:11.682Z,95.48046875
2023-02-19T07:56:11.622Z,94.8955078125
2023-02-19T07:57:13.929Z,94.712890625
2023-02-19T07:58:11.969Z,94.490234375
2023-02-19T07:59:11.714Z,93.697265625
2023-02-19T08:00:11.709Z,92.72265625
2023-02-19T08:01:11.985Z,92.0439453125
2023-02-19T08:02:11.734Z,92.8056640625
2023-02-19T08:03:11.987Z,93.37890625
2023-02-19T08:04:11.662Z,94.2861328125
2023-02-19T08:05:11.605Z,93.4365234375
2023-02-19T08:06:11.680Z,93.3232421875
2023-02-19T08:07:11.670Z,92.9775390625
2023-02-19T08:08:16.408Z,92.7509765625
2023-02-19T08:09:11.636Z,92.4755859375
2023-02-19T08:10:11.720Z,91.9873046875
2023-02-19T08:11:11.884Z,91.580078125
2023-02-19T08:12:11.679Z,90.580078125
2023-02-19T08:13:11.639Z,89.9833984375
2023-02-19T08:14:11.608Z,89.138671875
2023-02-19T08:15:11.807Z,88.0966796875
2023-02-19T08:16:20.155Z,87.58984375
2023-02-19T08:17:11.768Z,86.681640625
2023-02-19T08:18:11.954Z,85.625
2023-02-19T08:19:14.020Z,83.8955078125
2023-02-19T08:20:11.745Z,83.646484375
2023-02-19T08:21:11.984Z,83.814453125
2023-02-19T08:22:11.732Z,84.28125
2023-02-19T08:23:11.958Z,84.044921875
2023-02-19T08:24:11.612Z,84.49609375
2023-02-19T08:25:11.677Z,85.2890625
2023-02-19T08:26:11.731Z,85.1298828125
2023-02-19T08:27:11.639Z,86.5654296875
2023-02-19T08:28:11.956Z,90.5498046875
2023-02-19T08:29:11.725Z,93.638671875
2023-02-19T08:30:14.034Z,96.525390625
2023-02-19T08:31:12.118Z,97.84375
2023-02-19T08:32:11.786Z,98.341796875
2023-02-19T08:33:11.731Z,100
2023-02-19T08:34:11.599Z,100
2023-02-19T08:35:11.610Z,100
2023-02-19T08:36:11.682Z,100
2023-02-19T08:37:11.621Z,100
2023-02-19T08:38:11.966Z,100
2023-02-19T08:39:11.819Z,100
2023-02-19T08:40:11.691Z,100
2023-02-19T08:41:14.385Z,100
2023-02-19T08:42:11.718Z,100
2023-02-19T08:43:11.640Z,100
2023-02-19T08:44:11.714Z,100
2023-02-19T08:45:11.626Z,100
2023-02-19T08:46:11.631Z,100
2023-02-19T08:47:11.723Z,100
2023-02-19T08:48:11.963Z,100
2023-02-19T08:49:11.664Z,100
2023-02-19T08:50:12.536Z,100
2023-02-19T08:51:12.044Z,98.8427734375
2023-02-19T08:52:14.036Z,98.677734375
2023-02-19T08:53:11.955Z,98.21484375
2023-02-19T08:54:11.700Z,97.1015625
2023-02-19T08:55:11.607Z,96.26171875
2023-02-19T08:56:11.620Z,94.01953125
2023-02-19T08:57:11.685Z,91.7548828125
2023-02-19T08:58:11.958Z,90.7861328125
2023-02-19T08:59:11.687Z,88.6865234375
2023-02-19T09:00:11.735Z,86.6220703125
2023-02-19T09:01:12.324Z,84.59375
2023-02-19T09:02:11.703Z,83.419921875
2023-02-19T09:03:16.443Z,81.9228515625
2023-02-19T09:04:11.748Z,80.5869140625
2023-02-19T09:05:11.740Z,80.9375
2023-02-19T09:06:11.962Z,79.951171875
2023-02-19T09:07:11.649Z,79.537109375
2023-02-19T09:08:11.949Z,79.7470703125
2023-02-19T09:09:11.724Z,79.7197265625
2023-02-19T09:10:11.728Z,79.3447265625
2023-02-19T09:11:11.932Z,79.51953125
2023-02-19T09:12:11.727Z,79.01171875
2023-02-19T09:13:11.664Z,79.4267578125
2023-02-19T09:14:13.998Z,78.287109375
2023-02-19T09:15:11.714Z,78.44921875
2023-02-19T09:16:11.749Z,78.197265625
2023-02-19T09:17:11.590Z,77.9912109375
2023-02-19T09:18:11.646Z,78.298828125
2023-02-19T09:19:11.645Z,78.2841796875
2023-02-19T09:20:12.711Z,78.0263671875
2023-02-19T09:21:11.852Z,77.3955078125
2023-02-19T09:22:11.709Z,76.1416015625
2023-02-19T09:23:11.963Z,75.7822265625
2023-02-19T09:24:11.727Z,76.4033203125
2023-02-19T09:25:13.937Z,76.935546875
2023-02-19T09:26:11.657Z,77.0947265625
2023-02-19T09:27:11.625Z,76.83203125
2023-02-19T09:28:11.650Z,78.3134765625
2023-02-19T09:29:11.687Z,79.1650390625
2023-02-19T09:30:11.755Z,79.705078125
2023-02-19T09:31:11.923Z,78.69140625
2023-02-19T09:32:11.878Z,78.6943359375
2023-02-19T09:33:11.961Z,78.2724609375
2023-02-19T09:34:11.731Z,79.7138671875
2023-02-19T09:35:11.717Z,80.755859375
2023-02-19T09:36:14.042Z,83.9384765625
2023-02-19T09:37:11.710Z,84.115234375
2023-02-19T09:38:11.815Z,84.6064453125
2023-02-19T09:39:11.698Z,83.4794921875
2023-02-19T09:40:11.609Z,82.9189453125
2023-02-19T09:41:11.924Z,82.8134765625
2023-02-19T09:42:11.736Z,82.126953125
2023-02-19T09:43:11.964Z,80.6728515625
2023-02-19T09:44:11.722Z,80.5068359375
2023-02-19T09:45:11.673Z,80.1396484375
2023-02-19T09:46:11.657Z,79.74609375
2023-02-19T09:47:13.972Z,80.1787109375
2023-02-19T09:48:11.676Z,80.037109375
2023-02-19T09:49:11.739Z,81.1728515625
2023-02-19T09:50:11.742Z,82.7646484375
2023-02-19T09:51:11.917Z,84.16796875
2023-02-19T09:52:11.715Z,83.89453125
2023-02-19T09:53:11.701Z,83.6787109375
2023-02-19T09:54:11.631Z,83.4111328125
2023-02-19T09:55:11.609Z,83.8583984375
2023-02-19T09:56:11.668Z,83.61328125
2023-02-19T09:57:11.666Z,83.8076171875
2023-02-19T09:58:14.124Z,83.703125
2023-02-19T09:59:11.620Z,82.357421875
2023-02-19T10:00:11.673Z,82.0673828125
2023-02-19T10:01:12.139Z,80.5400390625
2023-02-19T10:02:11.605Z,79.3427734375
2023-02-19T10:03:11.740Z,78.876953125
2023-02-19T10:04:11.612Z,79.798828125
2023-02-19T10:05:11.764Z,79.93359375
2023-02-19T10:06:11.738Z,80.6630859375
2023-02-19T10:07:11.580Z,82.2734375
2023-02-19T10:08:11.956Z,83.9228515625
2023-02-19T10:09:14.080Z,84.8603515625
2023-02-19T10:10:11.744Z,87.626953125
2023-02-19T10:11:12.026Z,89.7353515625
2023-02-19T10:12:11.753Z,93.234375
2023-02-19T10:13:11.737Z,93.5380859375
2023-02-19T10:14:11.666Z,95.294921875
2023-02-19T10:15:11.595Z,98.8671875
2023-02-19T10:16:11.760Z,100
2023-02-19T10:17:11.685Z,100
2023-02-19T10:18:11.718Z,100
2023-02-19T10:19:11.687Z,100
2023-02-19T10:20:13.985Z,100
2023-02-19T10:21:12.057Z,100
2023-02-19T10:22:11.655Z,100
2023-02-19T10:23:11.716Z,100
2023-02-19T10:24:11.725Z,100
2023-02-19T10:25:11.727Z,100
2023-02-19T10:26:11.688Z,100
2023-02-19T10:27:11.659Z,100
2023-02-19T10:28:11.953Z,100
2023-02-19T10:29:11.602Z,100
2023-02-19T10:30:11.709Z,100
2023-02-19T10:31:14.317Z,100
2023-02-19T10:32:11.680Z,100
2023-02-19T10:33:11.707Z,100
2023-02-19T10:34:11.698Z,100
2023-02-19T10:35:11.589Z,100
2023-02-19T10:36:11.604Z,100
2023-02-19T10:37:11.612Z,100
2023-02-19T10:38:11.733Z,100
2023-02-19T10:39:11.703Z,100
2023-02-19T10:40:11.735Z,100
2023-02-19T10:41:12.070Z,100
2023-02-19T10:42:14.013Z,100
2023-02-19T10:43:11.741Z,100